createdAt,value
2018-12-12T00:02:14.644Z,97633.45
2018-12-12T00:04:43.106Z,97620.50
2018-12-12T00:07:11.526Z,97627.38
2018-12-12T00:09:40.363Z,97626.56
2018-12-12T00:12:08.849Z,97626.56
2018-12-12T00:14:37.262Z,97618.00
2018-12-12T00:17:05.718Z,97618.81
2018-12-12T00:19:34.169Z,97610.20
2018-12-12T00:22:02.829Z,97614.95
2018-12-12T00:24:31.290Z,97612.83
2018-12-12T00:27:00.645Z,97614.98
2018-12-12T00:29:29.304Z,97608.11
2018-12-12T00:31:57.792Z,97450.53
2018-12-12T00:34:26.277Z,97612.02
2018-12-12T00:36:54.709Z,97612.48
2018-12-12T00:39:24.793Z,97610.84
2018-12-12T00:41:53.254Z,97607.44
2018-12-12T00:44:22.044Z,97607.91
2018-12-12T00:46:51.033Z,97611.41
2018-12-12T00:49:19.709Z,97611.95
2018-12-12T00:51:49.309Z,97618.85
2018-12-12T00:54:17.753Z,97618.88
2018-12-12T00:56:46.294Z,97618.94
2018-12-12T00:59:14.724Z,97619.33
2018-12-12T01:01:43.205Z,97620.58
2018-12-12T01:04:11.696Z,97565.67
2018-12-12T01:06:40.162Z,97623.07
2018-12-12T01:09:08.599Z,97611.88
2018-12-12T01:11:42.668Z,97618.34
2018-12-12T01:14:11.449Z,97613.56
2018-12-12T01:16:39.926Z,97619.56
2018-12-12T01:19:08.410Z,97633.34
2018-12-12T01:21:36.831Z,97612.67
2018-12-12T01:24:05.280Z,97622.61
2018-12-12T01:26:33.769Z,97618.30
2018-12-12T01:29:02.254Z,97610.55
2018-12-12T01:31:30.696Z,97618.77
2018-12-12T01:33:59.204Z,97620.09
2018-12-12T01:36:27.878Z,97620.48
2018-12-12T01:38:56.305Z,97620.89
2018-12-12T01:41:24.901Z,97617.41
2018-12-12T01:43:53.348Z,97613.10
2018-12-12T01:46:21.787Z,97612.67
2018-12-12T01:48:50.257Z,97614.83
2018-12-12T01:51:18.689Z,97608.77
2018-12-12T01:53:48.126Z,97616.67
2018-12-12T01:56:16.597Z,97608.10
2018-12-12T01:58:45.056Z,97614.52
2018-12-12T02:01:14.059Z,97618.80
2018-12-12T02:03:42.513Z,97616.18
2018-12-12T02:06:11.212Z,97619.62
2018-12-12T02:08:39.693Z,97617.05
2018-12-12T02:11:08.163Z,97613.13
2018-12-12T02:13:37.349Z,97618.30
2018-12-12T02:16:07.193Z,97615.72
2018-12-12T02:18:37.330Z,97625.20
2018-12-12T02:21:05.766Z,97623.47
2018-12-12T02:23:34.191Z,97620.89
2018-12-12T02:26:02.686Z,97623.91
2018-12-12T02:28:31.129Z,97626.06
2018-12-12T02:30:59.574Z,97626.48
2018-12-12T02:33:28.055Z,97625.20
2018-12-12T02:35:56.485Z,97626.48
2018-12-12T02:38:24.930Z,97631.23
2018-12-12T02:40:53.399Z,97623.91
2018-12-12T02:43:21.980Z,97625.20
2018-12-12T02:45:50.408Z,97622.61
2018-12-12T02:48:18.886Z,97577.23
2018-12-12T02:50:47.835Z,97631.19
2018-12-12T02:53:16.253Z,97629.04
2018-12-12T02:55:45.174Z,97632.92
2018-12-12T02:58:13.626Z,97633.34
2018-12-12T03:00:42.146Z,97632.48
2018-12-12T03:03:10.599Z,97629.44
2018-12-12T03:05:39.022Z,97625.13
2018-12-12T03:08:07.450Z,97626.84
2018-12-12T03:10:35.911Z,97628.11
2018-12-12T03:13:04.340Z,97623.80
2018-12-12T03:15:32.757Z,97623.80
2018-12-12T03:18:01.659Z,97616.45
2018-12-12T03:20:30.158Z,97619.06
2018-12-12T03:22:58.586Z,97617.73
2018-12-12T03:25:27.085Z,97616.05
2018-12-12T03:27:55.506Z,97618.20
2018-12-12T03:30:23.933Z,97613.43
2018-12-12T03:32:52.400Z,97622.08
2018-12-12T03:35:20.906Z,97619.92
2018-12-12T03:37:49.745Z,97614.76
2018-12-12T03:40:18.816Z,97610.45
2018-12-12T03:42:47.770Z,97606.14
2018-12-12T03:45:16.209Z,97614.36
2018-12-12T03:47:44.669Z,97616.52
2018-12-12T03:50:13.111Z,97615.22
2018-12-12T03:52:41.550Z,97610.09
2018-12-12T03:55:10.037Z,97617.38
2018-12-12T03:57:38.466Z,97619.96
2018-12-12T04:00:08.698Z,97613.07
2018-12-12T04:02:37.249Z,97617.80
2018-12-12T04:05:05.742Z,97623.44
2018-12-12T04:07:34.170Z,97615.66
2018-12-12T04:10:03.646Z,97615.72
2018-12-12T04:12:32.111Z,97616.52
2018-12-12T04:15:01.472Z,97614.33
2018-12-12T04:17:29.959Z,97616.02
2018-12-12T04:19:58.395Z,97617.77
2018-12-12T04:22:27.154Z,97612.13
2018-12-12T04:24:55.975Z,97614.72
2018-12-12T04:27:24.507Z,97615.11
2018-12-12T04:29:53.376Z,97609.55
2018-12-12T04:32:21.845Z,97615.15
2018-12-12T04:34:50.279Z,97612.14
2018-12-12T04:37:18.731Z,97611.27
2018-12-12T04:39:47.207Z,97615.19
2018-12-12T04:42:15.622Z,97611.31
2018-12-12T04:44:44.126Z,97617.38
2018-12-12T04:47:12.604Z,97619.53
2018-12-12T04:49:41.043Z,97619.09
2018-12-12T04:52:09.510Z,97625.13
2018-12-12T04:54:37.975Z,97622.11
2018-12-12T04:57:06.393Z,97650.54
2018-12-12T04:59:35.370Z,97622.55
2018-12-12T05:02:03.879Z,97625.13
2018-12-12T05:04:32.355Z,97587.56
2018-12-12T05:07:01.796Z,97619.53
2018-12-12T05:09:30.316Z,97625.59
2018-12-12T05:11:59.009Z,97632.45
2018-12-12T05:14:27.688Z,97630.73
2018-12-12T05:16:56.141Z,97635.10
2018-12-12T05:19:26.460Z,97634.64
2018-12-12T05:21:55.379Z,97631.23
2018-12-12T05:24:23.841Z,97641.56
2018-12-12T05:26:52.289Z,97635.53
2018-12-12T05:29:20.724Z,97574.64
2018-12-12T05:31:49.232Z,97639.94
2018-12-12T05:34:17.707Z,97640.42
2018-12-12T05:36:48.166Z,97648.20
2018-12-12T05:39:17.611Z,97650.39
2018-12-12T05:41:46.027Z,97646.52
2018-12-12T05:44:14.493Z,97645.70
2018-12-12T05:46:43.239Z,97648.30
2018-12-12T05:49:11.665Z,97650.41
2018-12-12T05:51:40.595Z,97517.75
2018-12-12T05:54:09.104Z,97655.91
2018-12-12T05:56:37.553Z,97662.34
2018-12-12T05:59:06.011Z,97663.63
2018-12-12T06:01:34.606Z,97664.06
2018-12-12T06:04:03.259Z,97664.92
2018-12-12T06:06:31.711Z,97674.41
2018-12-12T06:09:00.190Z,97670.92
2018-12-12T06:11:28.821Z,97666.62
2018-12-12T06:13:57.299Z,97674.80
2018-12-12T06:16:25.815Z,97674.38
2018-12-12T06:18:55.167Z,97676.95
2018-12-12T06:21:23.590Z,97676.53
2018-12-12T06:23:52.069Z,97679.51
2018-12-12T06:26:20.537Z,97680.37
2018-12-12T06:28:49.008Z,97680.37
2018-12-12T06:31:17.512Z,97679.94
2018-12-12T06:33:45.986Z,97679.94
2018-12-12T06:36:14.471Z,97685.53
2018-12-12T06:38:42.991Z,97681.57
2018-12-12T06:41:11.429Z,97682.97
2018-12-12T06:43:39.878Z,97690.25
2018-12-12T06:46:09.103Z,97686.38
2018-12-12T06:48:37.550Z,97689.41
2018-12-12T06:51:06.283Z,97688.95
2018-12-12T06:53:34.808Z,97692.28
2018-12-12T06:56:03.283Z,97695.63
2018-12-12T06:58:31.736Z,97694.31
2018-12-12T07:01:00.226Z,97698.12
2018-12-12T07:03:28.654Z,97702.66
2018-12-12T07:05:57.354Z,97705.39
2018-12-12T07:08:26.248Z,97704.55
2018-12-12T07:10:54.933Z,97698.05
2018-12-12T07:13:23.627Z,97698.44
2018-12-12T07:15:55.307Z,97711.78
2018-12-12T07:18:24.013Z,97719.06
2018-12-12T07:20:52.442Z,97717.73
2018-12-12T07:23:20.951Z,97722.06
2018-12-12T07:25:49.403Z,97723.75
2018-12-12T07:28:17.843Z,97723.30
2018-12-12T07:30:46.561Z,97729.73
2018-12-12T07:33:15.115Z,97723.23
2018-12-12T07:35:43.690Z,97736.13
2018-12-12T07:38:12.331Z,97731.82
2018-12-12T07:40:40.819Z,97735.30
2018-12-12T07:43:09.319Z,97735.34
2018-12-12T07:45:37.818Z,97736.23
2018-12-12T07:48:06.272Z,97741.84
2018-12-12T07:50:34.720Z,97741.41
2018-12-12T07:53:03.193Z,97742.73
2018-12-12T07:55:31.622Z,97739.28
2018-12-12T07:58:00.093Z,97747.50
2018-12-12T08:00:28.611Z,97750.52
2018-12-12T08:02:57.046Z,97756.58
2018-12-12T08:05:25.498Z,97751.00
2018-12-12T08:07:54.678Z,97749.73
2018-12-12T08:10:23.117Z,97748.48
2018-12-12T08:12:51.571Z,97751.09
2018-12-12T08:15:20.650Z,97752.40
2018-12-12T08:17:49.112Z,97750.70
2018-12-12T08:20:17.670Z,97750.73
2018-12-12T08:22:46.205Z,97762.44
2018-12-12T08:25:14.906Z,97770.22
2018-12-12T08:27:43.475Z,97775.86
2018-12-12T08:30:12.572Z,97777.14
2018-12-12T08:32:41.755Z,97774.95
2018-12-12T08:35:10.217Z,97771.48
2018-12-12T08:37:38.712Z,97768.44
2018-12-12T08:40:09.904Z,97764.98
2018-12-12T08:42:38.353Z,97761.95
2018-12-12T08:45:06.869Z,97766.23
2018-12-12T08:47:35.318Z,97763.16
2018-12-12T08:50:04.737Z,97765.70
2018-12-12T08:52:33.638Z,97767.42
2018-12-12T08:55:02.050Z,97779.52
2018-12-12T08:57:30.622Z,97777.73
2018-12-12T08:59:59.122Z,97781.63
2018-12-12T09:02:27.822Z,97685.33
2018-12-12T09:04:56.485Z,97777.67
2018-12-12T09:07:25.020Z,97778.01
2018-12-12T09:09:53.471Z,97778.01
2018-12-12T09:12:21.913Z,97781.40
2018-12-12T09:14:50.403Z,97787.14
2018-12-12T09:17:18.907Z,97788.89
2018-12-12T09:19:47.331Z,97787.19
2018-12-12T09:22:15.828Z,97784.22
2018-12-12T09:24:44.249Z,97778.56
2018-12-12T09:27:12.939Z,97778.53
2018-12-12T09:29:43.996Z,97781.19
2018-12-12T09:32:14.393Z,97782.94
2018-12-12T09:34:43.149Z,97779.00
2018-12-12T09:37:11.667Z,97669.83
2018-12-12T09:39:40.354Z,97779.34
2018-12-12T09:42:09.324Z,97775.86
2018-12-12T09:44:37.807Z,97768.98
2018-12-12T09:47:06.274Z,97771.94
2018-12-12T09:49:34.729Z,97776.14
2018-12-12T09:52:03.352Z,97776.60
2018-12-12T09:54:33.727Z,97788.80
2018-12-12T09:57:02.220Z,97778.78
2018-12-12T09:59:31.625Z,97781.88
2018-12-12T10:02:01.159Z,97781.50
2018-12-12T10:04:31.115Z,97781.52
2018-12-12T10:06:59.535Z,97781.48
2018-12-12T10:09:28.049Z,97779.69
2018-12-12T10:11:56.512Z,97783.98
2018-12-12T10:14:24.934Z,97787.95
2018-12-12T10:16:55.051Z,97789.56
2018-12-12T10:19:23.548Z,97793.02
2018-12-12T10:21:52.196Z,97792.98
2018-12-12T10:24:20.679Z,97796.89
2018-12-12T10:26:49.179Z,97792.51
2018-12-12T10:29:17.957Z,97788.10
2018-12-12T10:31:47.947Z,97786.73
2018-12-12T10:34:16.451Z,97781.94
2018-12-12T10:36:45.115Z,97791.89
2018-12-12T10:39:15.565Z,97780.64
2018-12-12T10:41:47.140Z,97779.88
2018-12-12T10:44:16.775Z,97782.09
2018-12-12T10:46:45.227Z,97782.15
2018-12-12T10:49:13.693Z,97785.19
2018-12-12T10:51:42.124Z,97781.70
2018-12-12T10:54:11.389Z,97784.25
2018-12-12T10:56:39.923Z,97781.64
2018-12-12T10:59:10.469Z,97769.50
2018-12-12T11:01:44.533Z,97784.65
2018-12-12T11:04:13.227Z,97779.90
2018-12-12T11:06:41.677Z,97774.22
2018-12-12T11:09:10.172Z,97752.73
2018-12-12T11:11:39.779Z,97775.98
2018-12-12T11:14:08.241Z,97778.18
2018-12-12T11:16:36.733Z,97780.30
2018-12-12T11:19:05.182Z,97783.72
2018-12-12T11:21:34.659Z,97787.55
2018-12-12T11:24:03.622Z,97780.99
2018-12-12T11:26:34.316Z,97777.95
2018-12-12T11:29:02.770Z,97774.95
2018-12-12T11:31:31.261Z,97782.28
2018-12-12T11:33:59.984Z,97782.24
2018-12-12T11:36:28.925Z,97786.95
2018-12-12T11:38:57.387Z,97789.55
2018-12-12T11:41:28.894Z,97787.88
2018-12-12T11:43:58.288Z,97786.56
2018-12-12T11:46:29.046Z,97791.78
2018-12-12T11:48:58.913Z,97787.30
2018-12-12T11:51:27.593Z,97792.78
2018-12-12T11:53:59.981Z,97794.59
2018-12-12T11:56:28.429Z,97790.51
2018-12-12T11:58:56.863Z,97790.92
2018-12-12T12:01:25.338Z,97791.02
2018-12-12T12:03:56.692Z,97793.15
2018-12-12T12:06:24.243Z,97790.61
2018-12-12T12:08:52.708Z,97795.03
2018-12-12T12:11:21.247Z,97788.47
2018-12-12T12:13:49.702Z,97785.36
2018-12-12T12:16:18.202Z,97792.39
2018-12-12T12:18:46.660Z,97787.19
2018-12-12T12:21:15.102Z,97792.83
2018-12-12T12:23:43.598Z,97797.14
2018-12-12T12:26:12.860Z,97793.59
2018-12-12T12:28:41.319Z,97796.78
2018-12-12T12:31:09.799Z,97799.47
2018-12-12T12:33:38.360Z,97793.88
2018-12-12T12:36:06.839Z,97796.05
2018-12-12T12:38:35.330Z,97802.15
2018-12-12T12:41:03.782Z,97794.05
2018-12-12T12:43:32.215Z,97805.42
2018-12-12T12:46:00.695Z,97808.56
2018-12-12T12:48:29.151Z,97810.78
2018-12-12T12:50:57.605Z,97806.04
2018-12-12T12:53:26.083Z,97811.68
2018-12-12T12:55:54.516Z,97803.45
2018-12-12T12:58:22.964Z,97803.45
2018-12-12T13:00:51.526Z,97813.42
2018-12-12T13:03:19.975Z,97809.09
2018-12-12T13:05:48.399Z,97814.28
2018-12-12T13:08:16.888Z,97810.41
2018-12-12T13:10:45.434Z,97809.59
2018-12-12T13:13:14.284Z,97811.34
2018-12-12T13:15:43.103Z,97810.91
2018-12-12T13:18:11.752Z,97806.98
2018-12-12T13:20:40.190Z,97806.11
2018-12-12T13:23:08.671Z,97804.70
2018-12-12T13:25:37.116Z,97809.99
2018-12-12T13:28:05.587Z,97806.63
2018-12-12T13:30:34.064Z,97809.70
2018-12-12T13:33:03.288Z,97812.75
2018-12-12T13:35:31.758Z,97813.23
2018-12-12T13:38:00.228Z,97809.34
2018-12-12T13:40:28.725Z,97807.19
2018-12-12T13:42:57.183Z,97813.28
2018-12-12T13:45:25.668Z,97813.33
2018-12-12T13:47:54.091Z,97805.14
2018-12-12T13:50:22.512Z,97808.60
2018-12-12T13:52:51.008Z,97800.83
2018-12-12T13:55:20.188Z,97808.64
2018-12-12T13:57:49.197Z,97809.94
2018-12-12T14:00:17.678Z,97815.16
2018-12-12T14:02:46.177Z,97812.56
2018-12-12T14:05:14.855Z,97816.87
2018-12-12T14:07:43.339Z,97815.17
2018-12-12T14:10:11.793Z,97816.45
2018-12-12T14:12:41.363Z,97820.77
2018-12-12T14:15:10.727Z,97824.27
2018-12-12T14:17:39.415Z,97824.69
2018-12-12T14:20:07.980Z,97828.16
2018-12-12T14:22:37.080Z,97824.25
2018-12-12T14:25:05.636Z,97608.68
2018-12-12T14:27:38.878Z,97826.42
2018-12-12T14:30:07.168Z,97828.13
2018-12-12T14:32:35.979Z,97831.16
2018-12-12T14:35:05.024Z,97830.30
2018-12-12T14:37:33.511Z,97834.17
2018-12-12T14:40:01.950Z,97829.85
2018-12-12T14:42:30.402Z,97833.73
2018-12-12T14:44:58.885Z,97832.89
2018-12-12T14:47:27.352Z,97836.34
2018-12-12T14:49:55.824Z,97833.33
2018-12-12T14:52:24.291Z,97834.20
2018-12-12T14:54:52.728Z,97836.78
2018-12-12T14:57:21.925Z,97837.22
2018-12-12T14:59:51.235Z,97833.31
2018-12-12T15:02:19.892Z,97841.53
2018-12-12T15:04:48.584Z,97841.10
2018-12-12T15:07:17.628Z,97837.20
2018-12-12T15:09:46.360Z,97833.30
2018-12-12T15:12:14.812Z,97835.89
2018-12-12T15:14:43.302Z,97711.41
2018-12-12T15:17:11.756Z,97829.44
2018-12-12T15:19:40.204Z,97829.86
2018-12-12T15:22:09.238Z,97833.74
2018-12-12T15:24:38.129Z,97828.11
2018-12-12T15:27:06.579Z,97833.73
2018-12-12T15:29:35.073Z,97831.54
2018-12-12T15:32:03.559Z,97834.98
2018-12-12T15:34:32.011Z,97829.78
2018-12-12T15:37:02.148Z,97837.52
2018-12-12T15:39:30.599Z,97835.80
2018-12-12T15:41:59.011Z,97835.77
2018-12-12T15:44:28.269Z,97840.49
2018-12-12T15:46:56.868Z,97840.56
2018-12-12T15:49:25.340Z,97844.02
2018-12-12T15:51:53.819Z,97850.50
2018-12-12T15:54:22.281Z,97844.47
2018-12-12T15:56:50.721Z,97847.03
2018-12-12T15:59:19.350Z,97849.63
2018-12-12T16:01:47.859Z,97853.17
2018-12-12T16:04:16.900Z,97852.28
2018-12-12T16:06:45.396Z,97849.60
2018-12-12T16:09:13.865Z,97853.41
2018-12-12T16:11:42.590Z,97854.22
2018-12-12T16:14:13.112Z,97852.47
2018-12-12T16:16:41.624Z,97863.66
2018-12-12T16:19:10.058Z,97864.05
2018-12-12T16:21:38.538Z,97862.72
2018-12-12T16:24:07.005Z,97865.27
2018-12-12T16:26:35.472Z,97860.48
2018-12-12T16:29:04.064Z,97862.64
2018-12-12T16:31:32.510Z,97868.68
2018-12-12T16:34:00.967Z,97865.19
2018-12-12T16:36:29.462Z,97873.77
2018-12-12T16:38:59.046Z,97866.02
2018-12-12T16:41:27.505Z,97872.04
2018-12-12T16:43:56.003Z,97873.72
2018-12-12T16:46:24.482Z,97885.32
2018-12-12T16:48:54.322Z,97888.30
2018-12-12T16:51:23.494Z,97896.48
2018-12-12T16:53:51.975Z,97893.45
2018-12-12T16:56:21.508Z,97893.45
2018-12-12T16:58:50.029Z,97895.18
2018-12-12T17:01:18.462Z,97893.03
2018-12-12T17:03:47.001Z,97894.33
2018-12-12T17:06:15.473Z,97894.37
2018-12-12T17:08:44.304Z,97892.64
2018-12-12T17:11:13.282Z,97902.12
2018-12-12T17:13:42.397Z,97902.12
2018-12-12T17:16:10.865Z,97896.95
2018-12-12T17:18:39.359Z,97896.05
2018-12-12T17:21:07.953Z,97896.09
2018-12-12T17:23:36.438Z,97893.08
2018-12-12T17:26:05.076Z,97892.22
2018-12-12T17:28:33.709Z,97897.39
2018-12-12T17:31:02.604Z,97900.36
2018-12-12T17:33:31.150Z,97901.66
2018-12-12T17:35:59.713Z,97904.70
2018-12-12T17:38:28.210Z,97910.75
2018-12-12T17:40:56.773Z,97918.99
2018-12-12T17:43:25.369Z,97912.14
2018-12-12T17:45:53.904Z,97916.02
2018-12-12T17:48:22.460Z,97919.48
2018-12-12T17:50:51.059Z,97923.79
2018-12-12T17:53:19.729Z,97914.73
2018-12-12T17:55:48.259Z,97924.65
2018-12-12T17:58:16.854Z,97928.58
2018-12-12T18:00:45.470Z,97932.88
2018-12-12T18:03:14.000Z,97925.09
2018-12-12T18:05:42.591Z,97935.86
2018-12-12T18:08:11.653Z,97935.86
2018-12-12T18:10:40.265Z,97934.13
2018-12-12T18:13:09.148Z,97933.22
2018-12-12T18:15:37.738Z,97932.25
2018-12-12T18:18:06.305Z,97930.90
2018-12-12T18:20:34.937Z,97933.88
2018-12-12T18:23:04.167Z,97937.31
2018-12-12T18:25:32.830Z,97934.73
2018-12-12T18:28:01.423Z,97944.25
2018-12-12T18:30:30.512Z,97938.60
2018-12-12T18:33:01.266Z,97940.75
2018-12-12T18:35:30.565Z,97938.97
2018-12-12T18:38:00.032Z,97938.06
2018-12-12T18:40:28.806Z,97943.23
2018-12-12T18:42:57.344Z,97944.09
2018-12-12T18:45:25.993Z,97524.25
2018-12-12T18:47:54.611Z,97949.69
2018-12-12T18:50:23.285Z,97943.21
2018-12-12T18:52:51.821Z,97940.59
2018-12-12T18:55:20.645Z,97941.86
2018-12-12T18:57:49.319Z,97949.20
2018-12-12T19:00:18.821Z,97948.77
2018-12-12T19:02:47.420Z,97948.34
2018-12-12T19:05:16.266Z,97951.77
2018-12-12T19:07:50.291Z,97939.20
2018-12-12T19:10:19.011Z,97953.92
2018-12-12T19:12:47.607Z,97951.46
2018-12-12T19:15:16.545Z,97946.73
2018-12-12T19:17:45.104Z,97949.73
2018-12-12T19:20:18.433Z,97949.70
2018-12-12T19:22:47.403Z,97953.13
2018-12-12T19:25:16.335Z,97959.53
2018-12-12T19:27:45.050Z,97956.89
2018-12-12T19:30:13.799Z,97959.89
2018-12-12T19:32:42.397Z,97959.02
2018-12-12T19:35:11.694Z,97961.13
2018-12-12T19:37:41.298Z,97964.13
2018-12-12T19:40:10.660Z,97968.01
2018-12-12T19:42:39.182Z,97967.14
2018-12-12T19:45:13.093Z,97968.81
2018-12-12T19:47:41.731Z,97970.09
2018-12-12T19:50:10.498Z,97972.24
2018-12-12T19:52:39.839Z,97969.22
2018-12-12T19:55:09.680Z,97968.80
2018-12-12T19:57:38.628Z,97968.37
2018-12-12T20:00:08.690Z,97969.59
2018-12-12T20:02:37.602Z,97969.97
2018-12-12T20:05:09.628Z,97969.15
2018-12-12T20:07:38.138Z,97970.45
2018-12-12T20:10:12.802Z,97973.03
2018-12-12T20:12:41.464Z,97973.48
2018-12-12T20:15:13.079Z,97971.75
2018-12-12T20:17:43.308Z,97971.38
2018-12-12T20:20:12.122Z,97974.34
2018-12-12T20:22:40.748Z,97971.81
2018-12-12T20:25:11.088Z,97978.72
2018-12-12T20:27:41.778Z,97973.09
2018-12-12T20:30:14.861Z,97970.95
2018-12-12T20:32:43.484Z,97976.06
2018-12-12T20:35:12.163Z,97979.88
2018-12-12T20:37:40.700Z,97978.55
2018-12-12T20:40:09.611Z,97976.31
2018-12-12T20:42:38.281Z,97708.41
2018-12-12T20:45:07.749Z,97974.81
2018-12-12T20:47:37.308Z,97978.17
2018-12-12T20:50:06.809Z,97978.94
2018-12-12T20:52:35.317Z,97974.06
2018-12-12T20:55:04.303Z,97980.05
2018-12-12T20:57:32.980Z,97980.39
2018-12-12T21:00:01.508Z,97978.97
2018-12-12T21:02:30.064Z,97987.52
2018-12-12T21:04:58.600Z,97979.62
2018-12-12T21:07:27.397Z,97974.37
2018-12-12T21:09:56.485Z,97975.66
2018-12-12T21:12:26.124Z,97976.00
2018-12-12T21:14:54.650Z,97977.70
2018-12-12T21:17:23.212Z,97983.64
2018-12-12T21:19:51.692Z,97975.75
2018-12-12T21:22:20.258Z,97974.83
2018-12-12T21:24:48.836Z,97988.89
2018-12-12T21:27:27.280Z,97989.69
2018-12-12T21:29:56.523Z,97989.22
2018-12-12T21:32:25.078Z,97986.88
2018-12-12T21:34:53.989Z,97982.55
2018-12-12T21:37:22.712Z,97988.50
2018-12-12T21:39:51.285Z,97987.59
2018-12-12T21:42:20.269Z,97987.48
2018-12-12T21:44:49.851Z,97988.70
2018-12-12T21:47:18.424Z,97986.94
2018-12-12T21:49:47.003Z,97994.17
2018-12-12T21:52:15.520Z,97993.73
2018-12-12T21:54:43.997Z,97993.80
2018-12-12T21:57:12.519Z,97993.05
2018-12-12T21:59:41.024Z,97995.66
2018-12-12T22:02:09.562Z,97994.04
2018-12-12T22:04:38.083Z,97996.20
2018-12-12T22:07:06.728Z,97993.97
2018-12-12T22:09:35.245Z,97989.97
2018-12-12T22:12:03.771Z,98000.70
2018-12-12T22:14:32.316Z,98001.95
2018-12-12T22:17:00.851Z,97999.30
2018-12-12T22:19:29.591Z,98005.70
2018-12-12T22:21:58.122Z,98000.03
2018-12-12T22:24:26.584Z,98005.53
2018-12-12T22:26:55.011Z,98006.76
2018-12-12T22:29:23.501Z,98005.27
2018-12-12T22:31:51.984Z,98000.52
2018-12-12T22:34:20.422Z,98006.56
2018-12-12T22:36:48.943Z,97994.38
2018-12-12T22:39:17.779Z,98004.30
2018-12-12T22:41:46.485Z,98007.70
2018-12-12T22:44:14.965Z,98004.78
2018-12-12T22:46:43.411Z,98009.11
2018-12-12T22:49:11.871Z,98008.81
2018-12-12T22:51:40.398Z,98000.02
2018-12-12T22:54:08.911Z,98000.92
2018-12-12T22:56:37.553Z,98002.75
2018-12-12T22:59:06.055Z,98000.30
2018-12-12T23:01:34.472Z,97997.84
2018-12-12T23:04:02.931Z,97990.97
2018-12-12T23:06:31.422Z,97996.93
2018-12-12T23:09:00.092Z,98000.24
2018-12-12T23:11:28.563Z,97995.45
2018-12-12T23:13:57.057Z,97997.22
2018-12-12T23:16:25.508Z,97997.61
2018-12-12T23:18:53.986Z,98001.55
2018-12-12T23:21:22.507Z,97994.80
2018-12-12T23:23:51.013Z,97998.68
2018-12-12T23:26:19.489Z,97999.13
2018-12-12T23:28:47.955Z,98001.28
2018-12-12T23:31:16.504Z,97993.66
2018-12-12T23:33:45.024Z,98000.16
2018-12-12T23:36:13.526Z,97999.77
2018-12-12T23:38:41.959Z,97992.97
2018-12-12T23:41:10.427Z,97993.45
2018-12-12T23:43:38.923Z,97993.95
2018-12-12T23:46:07.372Z,97987.58
2018-12-12T23:48:35.985Z,97986.33
2018-12-12T23:51:04.482Z,97988.04
2018-12-12T23:53:32.960Z,97981.14
2018-12-12T23:56:01.428Z,97985.10
2018-12-12T23:58:29.963Z,97976.64
